sensor_id;sensor_type;location;lat;lon;timestamp;temperature;humidity
488;DHT22;16586;48.976;9.584;2023-01-28T00:01:52;3.60;50.80
488;DHT22;16586;48.976;9.584;2023-01-28T00:04:19;3.70;50.90
488;DHT22;16586;48.976;9.584;2023-01-28T00:06:46;3.70;50.80
488;DHT22;16586;48.976;9.584;2023-01-28T00:09:13;3.70;50.30
488;DHT22;16586;48.976;9.584;2023-01-28T00:11:39;3.70;50.80
488;DHT22;16586;48.976;9.584;2023-01-28T00:14:07;3.70;50.80
488;DHT22;16586;48.976;9.584;2023-01-28T00:16:35;3.80;50.60
488;DHT22;16586;48.976;9.584;2023-01-28T00:19:02;3.80;50.60
488;DHT22;16586;48.976;9.584;2023-01-28T00:21:28;3.70;50.30
488;DHT22;16586;48.976;9.584;2023-01-28T00:23:55;3.70;50.60
488;DHT22;16586;48.976;9.584;2023-01-28T00:26:23;3.70;50.80
488;DHT22;16586;48.976;9.584;2023-01-28T00:28:50;3.70;50.60
488;DHT22;16586;48.976;9.584;2023-01-28T00:31:19;3.70;50.70
488;DHT22;16586;48.976;9.584;2023-01-28T00:33:49;3.80;50.80
488;DHT22;16586;48.976;9.584;2023-01-28T00:36:17;3.80;50.60
488;DHT22;16586;48.976;9.584;2023-01-28T00:38:48;3.80;50.50
488;DHT22;16586;48.976;9.584;2023-01-28T00:41:17;3.80;50.30
488;DHT22;16586;48.976;9.584;2023-01-28T00:43:46;3.90;50.40
488;DHT22;16586;48.976;9.584;2023-01-28T00:46:14;3.80;50.20
488;DHT22;16586;48.976;9.584;2023-01-28T00:48:41;3.90;50.30
488;DHT22;16586;48.976;9.584;2023-01-28T00:51:11;3.80;50.50
488;DHT22;16586;48.976;9.584;2023-01-28T00:53:39;3.80;50.60
488;DHT22;16586;48.976;9.584;2023-01-28T00:56:07;3.80;50.60
488;DHT22;16586;48.976;9.584;2023-01-28T00:58:34;3.80;50.60
488;DHT22;16586;48.976;9.584;2023-01-28T01:01:06;3.80;50.80
488;DHT22;16586;48.976;9.584;2023-01-28T01:03:33;3.90;50.60
488;DHT22;16586;48.976;9.584;2023-01-28T01:06:00;3.90;50.80
488;DHT22;16586;48.976;9.584;2023-01-28T01:08:28;3.90;50.60
488;DHT22;16586;48.976;9.584;2023-01-28T01:11:00;3.90;50.60
488;DHT22;16586;48.976;9.584;2023-01-28T01:13:27;3.90;50.50
488;DHT22;16586;48.976;9.584;2023-01-28T01:16:01;3.90;50.70
488;DHT22;16586;48.976;9.584;2023-01-28T01:18:27;3.90;50.60
488;DHT22;16586;48.976;9.584;2023-01-28T01:20:54;4.00;50.90
488;DHT22;16586;48.976;9.584;2023-01-28T01:23:23;4.00;50.60
488;DHT22;16586;48.976;9.584;2023-01-28T01:25:51;4.00;50.50
488;DHT22;16586;48.976;9.584;2023-01-28T01:28:19;4.00;50.50
488;DHT22;16586;48.976;9.584;2023-01-28T01:30:46;4.10;50.70
488;DHT22;16586;48.976;9.584;2023-01-28T01:33:14;4.00;50.60
488;DHT22;16586;48.976;9.584;2023-01-28T01:35:41;4.00;50.90
488;DHT22;16586;48.976;9.584;2023-01-28T01:38:07;3.90;50.90
488;DHT22;16586;48.976;9.584;2023-01-28T01:40:34;3.90;50.90
488;DHT22;16586;48.976;9.584;2023-01-28T01:43:14;3.90;50.90
488;DHT22;16586;48.976;9.584;2023-01-28T01:45:42;3.90;51.00
488;DHT22;16586;48.976;9.584;2023-01-28T01:48:14;4.00;51.10
488;DHT22;16586;48.976;9.584;2023-01-28T01:50:44;4.00;51.00
488;DHT22;16586;48.976;9.584;2023-01-28T01:53:16;4.00;51.00
488;DHT22;16586;48.976;9.584;2023-01-28T01:55:48;4.00;51.10
488;DHT22;16586;48.976;9.584;2023-01-28T01:58:19;4.00;50.90
488;DHT22;16586;48.976;9.584;2023-01-28T02:00:47;4.00;51.00
488;DHT22;16586;48.976;9.584;2023-01-28T02:03:16;4.00;51.10
488;DHT22;16586;48.976;9.584;2023-01-28T02:05:45;3.90;50.90
488;DHT22;16586;48.976;9.584;2023-01-28T02:08:11;3.90;51.00
488;DHT22;16586;48.976;9.584;2023-01-28T02:10:49;3.90;51.10
488;DHT22;16586;48.976;9.584;2023-01-28T02:13:20;3.90;50.90
488;DHT22;16586;48.976;9.584;2023-01-28T02:15:48;3.80;51.40
488;DHT22;16586;48.976;9.584;2023-01-28T02:18:16;3.80;51.70
488;DHT22;16586;48.976;9.584;2023-01-28T02:21:07;3.80;51.80
488;DHT22;16586;48.976;9.584;2023-01-28T02:23:49;3.90;51.70
488;DHT22;16586;48.976;9.584;2023-01-28T02:26:48;3.90;51.70
488;DHT22;16586;48.976;9.584;2023-01-28T02:29:23;3.90;51.50
488;DHT22;16586;48.976;9.584;2023-01-28T02:31:54;3.90;51.70
488;DHT22;16586;48.976;9.584;2023-01-28T02:34:30;3.90;51.70
488;DHT22;16586;48.976;9.584;2023-01-28T02:37:06;3.90;51.80
488;DHT22;16586;48.976;9.584;2023-01-28T02:39:39;3.90;51.80
488;DHT22;16586;48.976;9.584;2023-01-28T02:42:09;4.00;52.00
488;DHT22;16586;48.976;9.584;2023-01-28T02:44:39;3.90;51.90
488;DHT22;16586;48.976;9.584;2023-01-28T02:47:09;3.90;52.00
488;DHT22;16586;48.976;9.584;2023-01-28T02:49:56;3.90;52.00
488;DHT22;16586;48.976;9.584;2023-01-28T02:52:33;3.90;52.00
488;DHT22;16586;48.976;9.584;2023-01-28T02:55:25;3.90;52.40
488;DHT22;16586;48.976;9.584;2023-01-28T02:58:00;3.90;52.40
488;DHT22;16586;48.976;9.584;2023-01-28T03:00:36;3.90;52.40
488;DHT22;16586;48.976;9.584;2023-01-28T03:03:15;3.80;52.70
488;DHT22;16586;48.976;9.584;2023-01-28T03:05:50;3.80;53.00
488;DHT22;16586;48.976;9.584;2023-01-28T03:08:33;3.80;53.00
488;DHT22;16586;48.976;9.584;2023-01-28T03:11:18;3.80;53.10
488;DHT22;16586;48.976;9.584;2023-01-28T03:14:04;3.80;53.30
488;DHT22;16586;48.976;9.584;2023-01-28T03:16:51;3.80;53.60
488;DHT22;16586;48.976;9.584;2023-01-28T03:19:36;3.90;53.60
488;DHT22;16586;48.976;9.584;2023-01-28T03:22:21;3.90;54.10
488;DHT22;16586;48.976;9.584;2023-01-28T03:25:07;3.90;54.30
488;DHT22;16586;48.976;9.584;2023-01-28T03:27:55;3.90;54.20
488;DHT22;16586;48.976;9.584;2023-01-28T03:30:44;3.90;54.40
488;DHT22;16586;48.976;9.584;2023-01-28T03:33:33;3.90;54.60
488;DHT22;16586;48.976;9.584;2023-01-28T03:36:18;3.90;54.50
488;DHT22;16586;48.976;9.584;2023-01-28T03:39:03;3.80;54.80
488;DHT22;16586;48.976;9.584;2023-01-28T03:41:30;3.80;55.00
488;DHT22;16586;48.976;9.584;2023-01-28T03:43:57;3.70;55.10
488;DHT22;16586;48.976;9.584;2023-01-28T03:46:37;3.60;55.70
488;DHT22;16586;48.976;9.584;2023-01-28T03:49:06;3.70;55.80
488;DHT22;16586;48.976;9.584;2023-01-28T03:51:32;3.70;55.60
488;DHT22;16586;48.976;9.584;2023-01-28T03:53:59;3.80;55.20
488;DHT22;16586;48.976;9.584;2023-01-28T03:56:26;3.80;55.40
488;DHT22;16586;48.976;9.584;2023-01-28T03:59:02;3.80;55.10
488;DHT22;16586;48.976;9.584;2023-01-28T04:01:28;3.80;55.80
488;DHT22;16586;48.976;9.584;2023-01-28T04:03:55;3.80;55.80
488;DHT22;16586;48.976;9.584;2023-01-28T04:06:24;3.80;55.70
488;DHT22;16586;48.976;9.584;2023-01-28T04:08:51;3.90;55.80
488;DHT22;16586;48.976;9.584;2023-01-28T04:11:19;3.80;55.70
488;DHT22;16586;48.976;9.584;2023-01-28T04:13:47;3.90;55.90
488;DHT22;16586;48.976;9.584;2023-01-28T04:16:15;3.90;55.70
488;DHT22;16586;48.976;9.584;2023-01-28T04:18:42;3.80;55.60
488;DHT22;16586;48.976;9.584;2023-01-28T04:21:09;3.80;56.00
488;DHT22;16586;48.976;9.584;2023-01-28T04:23:38;3.80;55.70
488;DHT22;16586;48.976;9.584;2023-01-28T04:26:04;3.90;56.20
488;DHT22;16586;48.976;9.584;2023-01-28T04:28:31;3.90;56.10
488;DHT22;16586;48.976;9.584;2023-01-28T04:30:58;3.90;56.20
488;DHT22;16586;48.976;9.584;2023-01-28T04:33:25;3.90;56.00
488;DHT22;16586;48.976;9.584;2023-01-28T04:35:51;3.90;56.00
488;DHT22;16586;48.976;9.584;2023-01-28T04:38:18;3.90;56.30
488;DHT22;16586;48.976;9.584;2023-01-28T04:40:49;3.90;56.10
488;DHT22;16586;48.976;9.584;2023-01-28T04:43:16;3.90;56.20
488;DHT22;16586;48.976;9.584;2023-01-28T04:45:44;4.00;56.50
488;DHT22;16586;48.976;9.584;2023-01-28T04:48:11;4.00;56.30
488;DHT22;16586;48.976;9.584;2023-01-28T04:50:38;4.00;56.30
488;DHT22;16586;48.976;9.584;2023-01-28T04:53:05;4.00;56.00
488;DHT22;16586;48.976;9.584;2023-01-28T04:55:32;4.00;56.10
488;DHT22;16586;48.976;9.584;2023-01-28T04:58:00;3.90;56.10
488;DHT22;16586;48.976;9.584;2023-01-28T05:00:26;3.90;56.80
488;DHT22;16586;48.976;9.584;2023-01-28T05:02:53;3.90;56.50
488;DHT22;16586;48.976;9.584;2023-01-28T05:05:20;3.90;56.30
488;DHT22;16586;48.976;9.584;2023-01-28T05:07:50;3.80;56.60
488;DHT22;16586;48.976;9.584;2023-01-28T05:10:18;3.90;56.70
488;DHT22;16586;48.976;9.584;2023-01-28T05:12:46;3.80;56.40
488;DHT22;16586;48.976;9.584;2023-01-28T05:15:15;3.80;56.70
488;DHT22;16586;48.976;9.584;2023-01-28T05:17:42;3.80;56.80
488;DHT22;16586;48.976;9.584;2023-01-28T05:20:10;3.80;56.80
488;DHT22;16586;48.976;9.584;2023-01-28T05:22:37;3.80;56.90
488;DHT22;16586;48.976;9.584;2023-01-28T05:25:05;3.80;56.80
488;DHT22;16586;48.976;9.584;2023-01-28T05:27:32;3.70;56.80
488;DHT22;16586;48.976;9.584;2023-01-28T05:29:59;3.80;57.10
488;DHT22;16586;48.976;9.584;2023-01-28T05:32:27;3.80;56.90
488;DHT22;16586;48.976;9.584;2023-01-28T05:34:54;3.90;56.90
488;DHT22;16586;48.976;9.584;2023-01-28T05:37:21;3.80;56.80
488;DHT22;16586;48.976;9.584;2023-01-28T05:39:48;3.90;57.00
488;DHT22;16586;48.976;9.584;2023-01-28T05:42:14;3.90;56.80
488;DHT22;16586;48.976;9.584;2023-01-28T05:44:43;3.80;56.90
488;DHT22;16586;48.976;9.584;2023-01-28T05:47:09;3.80;56.70
488;DHT22;16586;48.976;9.584;2023-01-28T05:49:37;3.80;56.80
488;DHT22;16586;48.976;9.584;2023-01-28T05:52:04;3.70;56.80
488;DHT22;16586;48.976;9.584;2023-01-28T05:54:31;3.60;57.10
488;DHT22;16586;48.976;9.584;2023-01-28T05:56:57;3.60;57.40
488;DHT22;16586;48.976;9.584;2023-01-28T05:59:24;3.50;57.50
488;DHT22;16586;48.976;9.584;2023-01-28T06:01:51;3.50;57.90
488;DHT22;16586;48.976;9.584;2023-01-28T06:04:18;3.60;57.60
488;DHT22;16586;48.976;9.584;2023-01-28T06:06:46;3.60;57.60
488;DHT22;16586;48.976;9.584;2023-01-28T06:09:12;3.50;57.80
488;DHT22;16586;48.976;9.584;2023-01-28T06:11:39;3.60;57.80
488;DHT22;16586;48.976;9.584;2023-01-28T06:14:06;3.60;57.60
488;DHT22;16586;48.976;9.584;2023-01-28T06:16:33;3.50;57.90
488;DHT22;16586;48.976;9.584;2023-01-28T06:19:00;3.50;58.00
488;DHT22;16586;48.976;9.584;2023-01-28T06:21:26;3.60;58.20
488;DHT22;16586;48.976;9.584;2023-01-28T06:23:55;3.60;57.70
488;DHT22;16586;48.976;9.584;2023-01-28T06:26:21;3.60;58.00
488;DHT22;16586;48.976;9.584;2023-01-28T06:28:48;3.60;57.80
488;DHT22;16586;48.976;9.584;2023-01-28T06:31:15;3.50;57.90
488;DHT22;16586;48.976;9.584;2023-01-28T06:33:42;3.40;58.10
488;DHT22;16586;48.976;9.584;2023-01-28T06:36:09;3.50;58.40
488;DHT22;16586;48.976;9.584;2023-01-28T06:38:36;3.50;58.40
488;DHT22;16586;48.976;9.584;2023-01-28T06:41:04;3.60;58.30
488;DHT22;16586;48.976;9.584;2023-01-28T06:43:31;4.10;58.50
488;DHT22;16586;48.976;9.584;2023-01-28T06:45:58;3.70;58.10
488;DHT22;16586;48.976;9.584;2023-01-28T06:48:25;3.70;57.80
488;DHT22;16586;48.976;9.584;2023-01-28T06:50:53;3.70;57.70
488;DHT22;16586;48.976;9.584;2023-01-28T06:53:20;3.80;57.80
488;DHT22;16586;48.976;9.584;2023-01-28T06:55:47;3.80;57.40
488;DHT22;16586;48.976;9.584;2023-01-28T06:58:15;3.80;57.60
488;DHT22;16586;48.976;9.584;2023-01-28T07:00:42;3.80;57.60
488;DHT22;16586;48.976;9.584;2023-01-28T07:03:09;3.80;57.40
488;DHT22;16586;48.976;9.584;2023-01-28T07:05:36;3.80;57.60
488;DHT22;16586;48.976;9.584;2023-01-28T07:08:03;3.90;57.40
488;DHT22;16586;48.976;9.584;2023-01-28T07:10:30;3.90;57.30
488;DHT22;16586;48.976;9.584;2023-01-28T07:12:57;4.00;57.30
488;DHT22;16586;48.976;9.584;2023-01-28T07:15:25;4.00;57.30
488;DHT22;16586;48.976;9.584;2023-01-28T07:17:52;4.00;57.20
488;DHT22;16586;48.976;9.584;2023-01-28T07:20:18;4.10;57.20
488;DHT22;16586;48.976;9.584;2023-01-28T07:22:46;4.10;57.10
488;DHT22;16586;48.976;9.584;2023-01-28T07:25:14;4.10;56.70
488;DHT22;16586;48.976;9.584;2023-01-28T07:27:46;4.10;56.90
488;DHT22;16586;48.976;9.584;2023-01-28T07:30:13;4.20;56.80
488;DHT22;16586;48.976;9.584;2023-01-28T07:32:41;4.20;57.50
488;DHT22;16586;48.976;9.584;2023-01-28T07:35:12;4.20;56.80
488;DHT22;16586;48.976;9.584;2023-01-28T07:37:39;4.30;56.90
488;DHT22;16586;48.976;9.584;2023-01-28T07:40:07;4.30;56.70
488;DHT22;16586;48.976;9.584;2023-01-28T07:42:34;4.30;56.70
488;DHT22;16586;48.976;9.584;2023-01-28T07:45:00;4.30;56.60
488;DHT22;16586;48.976;9.584;2023-01-28T07:47:27;4.40;56.60
488;DHT22;16586;48.976;9.584;2023-01-28T07:49:55;4.40;56.70
488;DHT22;16586;48.976;9.584;2023-01-28T07:52:22;4.40;56.50
488;DHT22;16586;48.976;9.584;2023-01-28T07:54:49;4.50;56.50
488;DHT22;16586;48.976;9.584;2023-01-28T07:57:15;4.60;56.40
488;DHT22;16586;48.976;9.584;2023-01-28T07:59:47;4.50;56.30
488;DHT22;16586;48.976;9.584;2023-01-28T08:02:14;4.60;56.30
488;DHT22;16586;48.976;9.584;2023-01-28T08:04:41;4.60;56.10
488;DHT22;16586;48.976;9.584;2023-01-28T08:07:09;4.60;56.00
488;DHT22;16586;48.976;9.584;2023-01-28T08:09:36;4.60;55.90
488;DHT22;16586;48.976;9.584;2023-01-28T08:12:03;4.70;55.90
488;DHT22;16586;48.976;9.584;2023-01-28T08:14:30;4.70;55.80
488;DHT22;16586;48.976;9.584;2023-01-28T08:16:57;4.70;55.90
488;DHT22;16586;48.976;9.584;2023-01-28T08:19:24;4.70;55.80
488;DHT22;16586;48.976;9.584;2023-01-28T08:21:50;4.80;56.00
488;DHT22;16586;48.976;9.584;2023-01-28T08:24:18;4.80;56.00
488;DHT22;16586;48.976;9.584;2023-01-28T08:26:47;4.80;55.90
488;DHT22;16586;48.976;9.584;2023-01-28T08:29:14;4.80;55.60
488;DHT22;16586;48.976;9.584;2023-01-28T08:31:40;4.90;55.60
488;DHT22;16586;48.976;9.584;2023-01-28T08:34:07;4.80;55.50
488;DHT22;16586;48.976;9.584;2023-01-28T08:36:34;4.90;55.40
488;DHT22;16586;48.976;9.584;2023-01-28T08:39:01;4.80;55.00
488;DHT22;16586;48.976;9.584;2023-01-28T08:41:30;4.90;55.30
488;DHT22;16586;48.976;9.584;2023-01-28T08:43:57;4.90;55.30
488;DHT22;16586;48.976;9.584;2023-01-28T08:46:24;4.90;55.20
488;DHT22;16586;48.976;9.584;2023-01-28T08:48:51;5.00;55.00
488;DHT22;16586;48.976;9.584;2023-01-28T08:51:18;5.00;54.90
488;DHT22;16586;48.976;9.584;2023-01-28T08:53:45;5.00;54.70
488;DHT22;16586;48.976;9.584;2023-01-28T08:56:11;5.00;54.70
488;DHT22;16586;48.976;9.584;2023-01-28T08:58:40;5.00;54.70
488;DHT22;16586;48.976;9.584;2023-01-28T09:01:06;5.00;54.40
488;DHT22;16586;48.976;9.584;2023-01-28T09:03:33;5.00;54.60
488;DHT22;16586;48.976;9.584;2023-01-28T09:06:00;5.10;54.60
488;DHT22;16586;48.976;9.584;2023-01-28T09:08:28;5.10;54.60
488;DHT22;16586;48.976;9.584;2023-01-28T09:10:55;5.10;54.60
488;DHT22;16586;48.976;9.584;2023-01-28T09:13:22;5.20;54.70
488;DHT22;16586;48.976;9.584;2023-01-28T09:15:50;5.20;54.60
488;DHT22;16586;48.976;9.584;2023-01-28T09:18:17;5.20;54.40
488;DHT22;16586;48.976;9.584;2023-01-28T09:20:44;5.30;54.40
488;DHT22;16586;48.976;9.584;2023-01-28T09:23:11;5.30;54.00
488;DHT22;16586;48.976;9.584;2023-01-28T09:25:38;5.30;54.10
488;DHT22;16586;48.976;9.584;2023-01-28T09:28:05;5.30;53.80
488;DHT22;16586;48.976;9.584;2023-01-28T09:30:32;5.30;53.80
488;DHT22;16586;48.976;9.584;2023-01-28T09:33:01;5.30;53.60
488;DHT22;16586;48.976;9.584;2023-01-28T09:35:28;5.30;53.60
488;DHT22;16586;48.976;9.584;2023-01-28T09:37:58;5.30;53.50
488;DHT22;16586;48.976;9.584;2023-01-28T09:40:31;5.30;53.30
488;DHT22;16586;48.976;9.584;2023-01-28T09:43:13;5.70;53.40
488;DHT22;16586;48.976;9.584;2023-01-28T09:45:46;5.30;53.00
488;DHT22;16586;48.976;9.584;2023-01-28T09:48:19;5.30;53.20
488;DHT22;16586;48.976;9.584;2023-01-28T09:50:49;5.30;53.20
488;DHT22;16586;48.976;9.584;2023-01-28T09:53:19;5.30;53.20
488;DHT22;16586;48.976;9.584;2023-01-28T09:55:49;5.30;53.10
488;DHT22;16586;48.976;9.584;2023-01-28T09:58:18;5.40;53.10
488;DHT22;16586;48.976;9.584;2023-01-28T10:00:52;5.40;52.80
488;DHT22;16586;48.976;9.584;2023-01-28T10:03:38;5.30;53.00
488;DHT22;16586;48.976;9.584;2023-01-28T10:06:20;5.30;53.00
488;DHT22;16586;48.976;9.584;2023-01-28T10:09:04;5.30;53.00
488;DHT22;16586;48.976;9.584;2023-01-28T10:11:46;5.30;53.10
488;DHT22;16586;48.976;9.584;2023-01-28T10:14:25;5.40;53.00
488;DHT22;16586;48.976;9.584;2023-01-28T10:16:57;5.40;53.30
488;DHT22;16586;48.976;9.584;2023-01-28T10:19:30;5.40;52.70
488;DHT22;16586;48.976;9.584;2023-01-28T10:22:02;5.40;53.40
488;DHT22;16586;48.976;9.584;2023-01-28T10:24:33;5.50;53.20
488;DHT22;16586;48.976;9.584;2023-01-28T10:27:01;5.50;52.70
488;DHT22;16586;48.976;9.584;2023-01-28T10:29:32;5.50;52.80
488;DHT22;16586;48.976;9.584;2023-01-28T10:32:03;5.60;52.30
488;DHT22;16586;48.976;9.584;2023-01-28T10:34:32;5.60;52.40
488;DHT22;16586;48.976;9.584;2023-01-28T10:36:59;5.50;52.20
488;DHT22;16586;48.976;9.584;2023-01-28T10:39:27;5.50;52.30
488;DHT22;16586;48.976;9.584;2023-01-28T10:41:55;5.50;52.10
488;DHT22;16586;48.976;9.584;2023-01-28T10:44:29;5.50;51.90
488;DHT22;16586;48.976;9.584;2023-01-28T10:47:00;5.50;52.00
488;DHT22;16586;48.976;9.584;2023-01-28T10:49:29;5.40;52.00
488;DHT22;16586;48.976;9.584;2023-01-28T10:51:57;5.40;51.90
488;DHT22;16586;48.976;9.584;2023-01-28T10:54:26;5.40;52.10
488;DHT22;16586;48.976;9.584;2023-01-28T10:56:56;5.40;52.10
488;DHT22;16586;48.976;9.584;2023-01-28T10:59:26;5.40;52.20
488;DHT22;16586;48.976;9.584;2023-01-28T11:01:58;5.50;52.10
488;DHT22;16586;48.976;9.584;2023-01-28T11:04:29;5.40;52.10
488;DHT22;16586;48.976;9.584;2023-01-28T11:07:00;5.40;52.20
488;DHT22;16586;48.976;9.584;2023-01-28T11:09:28;5.40;52.20
488;DHT22;16586;48.976;9.584;2023-01-28T11:11:56;5.80;52.60
488;DHT22;16586;48.976;9.584;2023-01-28T11:14:24;5.50;52.30
488;DHT22;16586;48.976;9.584;2023-01-28T11:16:53;5.50;52.30
488;DHT22;16586;48.976;9.584;2023-01-28T11:19:24;5.60;52.40
488;DHT22;16586;48.976;9.584;2023-01-28T11:21:54;5.50;52.30
488;DHT22;16586;48.976;9.584;2023-01-28T11:24:26;5.50;52.40
488;DHT22;16586;48.976;9.584;2023-01-28T11:26:56;5.50;52.60
488;DHT22;16586;48.976;9.584;2023-01-28T11:29:26;5.50;52.60
488;DHT22;16586;48.976;9.584;2023-01-28T11:31:54;5.50;52.70
488;DHT22;16586;48.976;9.584;2023-01-28T11:34:25;5.50;52.60
488;DHT22;16586;48.976;9.584;2023-01-28T11:36:54;5.50;52.70
488;DHT22;16586;48.976;9.584;2023-01-28T11:39:28;5.50;52.70
488;DHT22;16586;48.976;9.584;2023-01-28T11:42:03;5.60;52.70
488;DHT22;16586;48.976;9.584;2023-01-28T11:44:35;5.60;52.80
488;DHT22;16586;48.976;9.584;2023-01-28T11:50:16;5.50;53.20
488;DHT22;16586;48.976;9.584;2023-01-28T11:53:04;5.40;53.30
488;DHT22;16586;48.976;9.584;2023-01-28T11:55:50;5.40;53.80
488;DHT22;16586;48.976;9.584;2023-01-28T11:58:21;5.40;53.80
488;DHT22;16586;48.976;9.584;2023-01-28T12:00:55;5.40;54.00
488;DHT22;16586;48.976;9.584;2023-01-28T12:03:38;5.40;54.70
488;DHT22;16586;48.976;9.584;2023-01-28T12:09:10;5.30;54.40
488;DHT22;16586;48.976;9.584;2023-01-28T12:11:48;5.30;54.50
488;DHT22;16586;48.976;9.584;2023-01-28T12:14:50;5.20;55.00
488;DHT22;16586;48.976;9.584;2023-01-28T12:17:28;5.20;55.30
488;DHT22;16586;48.976;9.584;2023-01-28T12:20:08;5.20;55.30
488;DHT22;16586;48.976;9.584;2023-01-28T12:23:00;5.20;55.90
488;DHT22;16586;48.976;9.584;2023-01-28T12:25:38;5.10;56.00
488;DHT22;16586;48.976;9.584;2023-01-28T12:28:15;5.10;56.20
488;DHT22;16586;48.976;9.584;2023-01-28T12:30:57;5.20;56.30
488;DHT22;16586;48.976;9.584;2023-01-28T12:33:43;5.20;56.20
488;DHT22;16586;48.976;9.584;2023-01-28T12:36:23;5.30;56.40
488;DHT22;16586;48.976;9.584;2023-01-28T12:39:00;5.30;56.40
488;DHT22;16586;48.976;9.584;2023-01-28T12:41:31;5.20;55.90
488;DHT22;16586;48.976;9.584;2023-01-28T12:44:03;5.20;55.90
488;DHT22;16586;48.976;9.584;2023-01-28T12:46:38;5.20;55.80
488;DHT22;16586;48.976;9.584;2023-01-28T12:49:09;5.20;55.80
488;DHT22;16586;48.976;9.584;2023-01-28T12:51:47;5.20;55.10
488;DHT22;16586;48.976;9.584;2023-01-28T12:54:19;5.20;55.30
488;DHT22;16586;48.976;9.584;2023-01-28T12:56:50;5.20;55.30
488;DHT22;16586;48.976;9.584;2023-01-28T12:59:26;5.20;54.80
488;DHT22;16586;48.976;9.584;2023-01-28T13:02:02;5.20;55.00
488;DHT22;16586;48.976;9.584;2023-01-28T13:04:36;5.30;54.90
488;DHT22;16586;48.976;9.584;2023-01-28T13:07:07;5.30;54.80
488;DHT22;16586;48.976;9.584;2023-01-28T13:09:35;5.30;54.60
488;DHT22;16586;48.976;9.584;2023-01-28T13:12:04;5.40;54.70
488;DHT22;16586;48.976;9.584;2023-01-28T13:14:33;5.40;54.80
488;DHT22;16586;48.976;9.584;2023-01-28T13:17:10;5.50;54.80
488;DHT22;16586;48.976;9.584;2023-01-28T13:19:39;5.50;54.60
488;DHT22;16586;48.976;9.584;2023-01-28T13:22:24;5.50;54.70
488;DHT22;16586;48.976;9.584;2023-01-28T13:24:51;5.60;54.50
488;DHT22;16586;48.976;9.584;2023-01-28T13:27:22;5.70;54.20
488;DHT22;16586;48.976;9.584;2023-01-28T13:30:00;5.70;54.10
488;DHT22;16586;48.976;9.584;2023-01-28T13:32:31;5.80;53.90
488;DHT22;16586;48.976;9.584;2023-01-28T13:35:00;5.80;53.80
488;DHT22;16586;48.976;9.584;2023-01-28T13:37:30;5.90;53.50
488;DHT22;16586;48.976;9.584;2023-01-28T13:40:02;5.90;52.90
488;DHT22;16586;48.976;9.584;2023-01-28T13:42:30;5.90;52.80
488;DHT22;16586;48.976;9.584;2023-01-28T13:45:20;6.00;52.70
488;DHT22;16586;48.976;9.584;2023-01-28T13:47:50;6.00;52.70
488;DHT22;16586;48.976;9.584;2023-01-28T13:50:19;6.00;52.70
488;DHT22;16586;48.976;9.584;2023-01-28T13:52:51;6.00;52.50
488;DHT22;16586;48.976;9.584;2023-01-28T13:55:21;6.00;52.10
488;DHT22;16586;48.976;9.584;2023-01-28T13:58:38;5.90;52.10
488;DHT22;16586;48.976;9.584;2023-01-28T14:01:39;5.90;52.20
488;DHT22;16586;48.976;9.584;2023-01-28T14:04:53;5.90;51.60
488;DHT22;16586;48.976;9.584;2023-01-28T14:07:46;5.90;51.20
488;DHT22;16586;48.976;9.584;2023-01-28T14:10:29;5.80;51.50
488;DHT22;16586;48.976;9.584;2023-01-28T14:13:32;5.80;51.40
488;DHT22;16586;48.976;9.584;2023-01-28T14:16:28;5.80;51.20
488;DHT22;16586;48.976;9.584;2023-01-28T14:18:58;5.80;50.90
488;DHT22;16586;48.976;9.584;2023-01-28T14:21:26;5.70;50.20
488;DHT22;16586;48.976;9.584;2023-01-28T14:23:55;5.50;50.30
488;DHT22;16586;48.976;9.584;2023-01-28T14:26:31;5.50;50.70
488;DHT22;16586;48.976;9.584;2023-01-28T14:29:12;5.50;50.90
488;DHT22;16586;48.976;9.584;2023-01-28T14:31:43;5.50;50.70
488;DHT22;16586;48.976;9.584;2023-01-28T14:34:16;5.40;50.80
488;DHT22;16586;48.976;9.584;2023-01-28T14:36:47;5.40;50.90
488;DHT22;16586;48.976;9.584;2023-01-28T14:39:16;5.40;50.80
488;DHT22;16586;48.976;9.584;2023-01-28T14:41:45;5.40;51.10
488;DHT22;16586;48.976;9.584;2023-01-28T14:44:23;5.40;50.90
488;DHT22;16586;48.976;9.584;2023-01-28T14:49:54;5.30;50.90
488;DHT22;16586;48.976;9.584;2023-01-28T14:52:49;5.30;50.40
488;DHT22;16586;48.976;9.584;2023-01-28T14:55:28;5.30;50.80
488;DHT22;16586;48.976;9.584;2023-01-28T14:57:59;5.30;50.40
488;DHT22;16586;48.976;9.584;2023-01-28T15:00:29;5.20;50.60
488;DHT22;16586;48.976;9.584;2023-01-28T15:02:57;5.20;50.60
488;DHT22;16586;48.976;9.584;2023-01-28T15:05:26;5.20;50.50
488;DHT22;16586;48.976;9.584;2023-01-28T15:07:53;5.20;50.60
488;DHT22;16586;48.976;9.584;2023-01-28T15:10:24;5.30;50.50
488;DHT22;16586;48.976;9.584;2023-01-28T15:12:54;5.30;50.30
488;DHT22;16586;48.976;9.584;2023-01-28T15:15:29;5.30;50.50
488;DHT22;16586;48.976;9.584;2023-01-28T15:18:01;5.30;50.50
488;DHT22;16586;48.976;9.584;2023-01-28T15:20:29;5.30;50.10
488;DHT22;16586;48.976;9.584;2023-01-28T15:22:56;5.20;50.40
488;DHT22;16586;48.976;9.584;2023-01-28T15:25:27;5.50;50.60
488;DHT22;16586;48.976;9.584;2023-01-28T15:27:57;5.20;50.20
488;DHT22;16586;48.976;9.584;2023-01-28T15:30:26;5.20;50.10
488;DHT22;16586;48.976;9.584;2023-01-28T15:33:02;5.20;50.40
488;DHT22;16586;48.976;9.584;2023-01-28T15:35:30;5.20;50.20
488;DHT22;16586;48.976;9.584;2023-01-28T15:37:57;5.10;50.20
488;DHT22;16586;48.976;9.584;2023-01-28T15:40:24;5.10;50.40
488;DHT22;16586;48.976;9.584;2023-01-28T15:42:52;5.20;50.30
488;DHT22;16586;48.976;9.584;2023-01-28T15:45:29;5.10;50.00
488;DHT22;16586;48.976;9.584;2023-01-28T15:48:04;5.10;50.60
488;DHT22;16586;48.976;9.584;2023-01-28T15:50:33;5.00;49.80
488;DHT22;16586;48.976;9.584;2023-01-28T15:53:00;5.00;50.10
488;DHT22;16586;48.976;9.584;2023-01-28T15:55:31;5.00;50.00
488;DHT22;16586;48.976;9.584;2023-01-28T15:58:13;4.90;49.40
488;DHT22;16586;48.976;9.584;2023-01-28T16:00:41;4.70;49.20
488;DHT22;16586;48.976;9.584;2023-01-28T16:03:16;4.50;50.20
488;DHT22;16586;48.976;9.584;2023-01-28T16:05:54;4.60;50.50
488;DHT22;16586;48.976;9.584;2023-01-28T16:08:26;4.60;50.30
488;DHT22;16586;48.976;9.584;2023-01-28T16:10:55;4.50;50.70
488;DHT22;16586;48.976;9.584;2023-01-28T16:13:24;4.60;50.90
488;DHT22;16586;48.976;9.584;2023-01-28T16:15:54;4.60;50.70
488;DHT22;16586;48.976;9.584;2023-01-28T16:18:29;4.60;50.10
488;DHT22;16586;48.976;9.584;2023-01-28T16:20:57;4.50;50.10
488;DHT22;16586;48.976;9.584;2023-01-28T16:23:26;4.50;50.50
488;DHT22;16586;48.976;9.584;2023-01-28T16:26:01;4.50;50.60
488;DHT22;16586;48.976;9.584;2023-01-28T16:28:28;4.50;51.20
488;DHT22;16586;48.976;9.584;2023-01-28T16:30:58;4.50;50.40
488;DHT22;16586;48.976;9.584;2023-01-28T16:33:26;4.50;50.50
488;DHT22;16586;48.976;9.584;2023-01-28T16:35:53;4.50;50.40
488;DHT22;16586;48.976;9.584;2023-01-28T16:38:20;4.50;50.30
488;DHT22;16586;48.976;9.584;2023-01-28T16:40:47;4.50;50.30
488;DHT22;16586;48.976;9.584;2023-01-28T16:43:15;4.60;50.50
488;DHT22;16586;48.976;9.584;2023-01-28T16:45:43;4.70;50.20
488;DHT22;16586;48.976;9.584;2023-01-28T16:48:10;4.60;50.30
488;DHT22;16586;48.976;9.584;2023-01-28T16:50:41;4.60;50.20
488;DHT22;16586;48.976;9.584;2023-01-28T16:53:18;4.60;50.30